Time;durP1;ratioP1;P1;durP2;ratioP2;P2;SDS_P1;SDS_P2;PMS_P1;PMS_P2;Temp;Humidity;BMP_temperature;BMP_pressure;BME280_temperature;BME280_humidity;BME280_pressure;Samples;Min_cycle;Max_cycle;Signal;HPM_P1;HPM_P2
2021/11/26 00:00:02;;;;;;;15.05;9.00;;;1.00;99.90;;;;;;476497;249;27396;-72
2021/11/26 00:02:03;;;;;;;12.55;8.30;;;1.00;99.90;;;;;;476480;249;27461;-73
2021/11/26 00:04:06;;;;;;;13.30;8.50;;;1.00;99.90;;;;;;476473;249;27468;-72
2021/11/26 00:06:06;;;;;;;12.55;8.30;;;0.90;99.90;;;;;;476400;249;27428;-72
2021/11/26 00:08:07;;;;;;;13.77;9.15;;;1.00;99.90;;;;;;476458;249;27769;-72
2021/11/26 00:10:08;;;;;;;16.00;10.13;;;1.00;99.90;;;;;;476507;249;27393;-72
2021/11/26 00:12:10;;;;;;;14.63;8.98;;;0.90;99.90;;;;;;476490;247;27998;-73
2021/11/26 00:14:27;;;;;;;18.35;10.57;;;0.90;99.90;;;;;;476483;249;27879;-73
2021/11/26 00:16:28;;;;;;;16.90;9.45;;;0.80;99.90;;;;;;476130;249;27974;-73
2021/11/26 00:18:22;;;;;;;13.77;9.35;;;0.70;99.90;;;;;;476071;249;27477;-72
2021/11/26 00:20:24;;;;;;;13.20;9.40;;;0.70;99.90;;;;;;476490;249;27457;-72
2021/11/26 00:22:25;;;;;;;13.20;9.10;;;0.70;99.90;;;;;;476476;249;27445;-72
2021/11/26 00:24:26;;;;;;;15.70;9.05;;;0.60;99.90;;;;;;476422;249;27536;-73
2021/11/26 00:26:27;;;;;;;12.48;8.05;;;0.50;99.90;;;;;;476473;249;27486;-72
2021/11/26 00:28:29;;;;;;;15.38;9.65;;;0.50;99.90;;;;;;476479;249;27405;-72
2021/11/26 00:30:30;;;;;;;13.48;9.10;;;0.50;99.90;;;;;;476482;249;27536;-73
2021/11/26 00:32:31;;;;;;;14.95;9.40;;;0.40;99.90;;;;;;476435;249;28412;-73
2021/11/26 00:34:32;;;;;;;15.82;9.48;;;0.40;99.90;;;;;;476460;249;29092;-73
2021/11/26 00:36:34;;;;;;;16.35;9.45;;;0.40;99.90;;;;;;476487;249;28169;-73
2021/11/26 00:38:35;;;;;;;13.85;9.38;;;0.40;99.90;;;;;;476492;249;27432;-73
2021/11/26 00:40:36;;;;;;;13.38;8.55;;;0.40;99.90;;;;;;476460;249;27528;-73
2021/11/26 00:42:39;;;;;;;12.52;8.93;;;0.40;99.90;;;;;;476485;249;27469;-73
2021/11/26 00:44:39;;;;;;;14.20;8.45;;;0.40;99.90;;;;;;476385;249;27473;-73
2021/11/26 00:46:40;;;;;;;15.65;9.77;;;0.40;99.90;;;;;;476482;249;27532;-72
2021/11/26 00:48:41;;;;;;;12.60;8.00;;;0.40;99.90;;;;;;476469;249;27398;-72
2021/11/26 00:50:43;;;;;;;16.62;9.43;;;0.30;99.90;;;;;;476471;249;27512;-73
2021/11/26 00:52:44;;;;;;;13.23;8.65;;;0.40;99.90;;;;;;476442;249;27865;-72
2021/11/26 00:54:45;;;;;;;13.30;8.55;;;0.40;99.90;;;;;;476467;249;27931;-72
2021/11/26 00:56:46;;;;;;;13.00;8.70;;;0.50;99.90;;;;;;476493;249;27536;-74
2021/11/26 00:58:47;;;;;;;14.20;8.57;;;0.50;99.90;;;;;;476468;249;27477;-72
2021/11/26 01:00:49;;;;;;;12.93;8.10;;;0.50;99.90;;;;;;476440;249;27428;-73
2021/11/26 01:02:50;;;;;;;14.55;9.70;;;0.50;99.90;;;;;;476456;249;27521;-72
2021/11/26 01:04:51;;;;;;;14.90;9.20;;;0.60;99.90;;;;;;476497;249;27422;-72
2021/11/26 01:06:52;;;;;;;15.68;10.05;;;0.50;99.90;;;;;;476501;249;27439;-73
2021/11/26 01:08:54;;;;;;;13.95;9.00;;;0.60;99.90;;;;;;476508;247;27415;-72
2021/11/26 01:10:55;;;;;;;14.87;9.60;;;0.60;99.90;;;;;;476459;249;27936;-73
2021/11/26 01:12:56;;;;;;;16.17;9.68;;;0.60;99.90;;;;;;476423;249;28599;-72
2021/11/26 01:14:57;;;;;;;15.77;8.82;;;0.70;99.90;;;;;;476471;249;27944;-72
2021/11/26 01:16:59;;;;;;;12.15;8.88;;;0.70;99.90;;;;;;476466;249;27456;-73
2021/11/26 01:19:00;;;;;;;14.65;8.55;;;0.70;99.90;;;;;;476064;249;27397;-72
2021/11/26 01:21:04;;;;;;;13.13;9.05;;;0.70;99.90;;;;;;476479;249;27416;-72
2021/11/26 01:23:03;;;;;;;15.30;9.38;;;0.70;99.90;;;;;;476318;249;27592;-72
2021/11/26 01:25:04;;;;;;;14.45;9.15;;;0.70;99.90;;;;;;476461;249;27528;-73
2021/11/26 01:27:07;;;;;;;13.57;8.73;;;0.70;99.90;;;;;;476483;249;27471;-72
2021/11/26 01:29:06;;;;;;;17.08;9.27;;;0.70;99.90;;;;;;476353;249;27405;-72
2021/11/26 01:31:08;;;;;;;14.18;9.15;;;0.80;99.90;;;;;;476446;249;28022;-73
2021/11/26 01:33:09;;;;;;;13.75;9.50;;;0.80;99.90;;;;;;476480;249;27905;-74
2021/11/26 01:35:10;;;;;;;14.75;9.50;;;0.80;99.90;;;;;;476465;249;27864;-73
2021/11/26 01:37:11;;;;;;;16.87;10.02;;;0.80;99.90;;;;;;476473;249;27528;-72
2021/11/26 01:39:13;;;;;;;15.85;9.80;;;0.80;99.90;;;;;;476459;247;27506;-72
2021/11/26 01:41:14;;;;;;;17.45;10.13;;;0.80;99.90;;;;;;476475;249;27457;-73
2021/11/26 01:43:15;;;;;;;13.23;8.65;;;0.90;99.90;;;;;;476501;247;27448;-73
2021/11/26 01:45:16;;;;;;;15.13;9.75;;;0.90;99.90;;;;;;476499;249;27422;-72
2021/11/26 01:47:18;;;;;;;14.32;9.27;;;0.80;99.90;;;;;;476451;249;27547;-73
2021/11/26 01:49:19;;;;;;;15.80;10.20;;;0.80;99.90;;;;;;476495;249;28735;-72
2021/11/26 01:51:20;;;;;;;16.33;9.85;;;0.80;99.90;;;;;;476541;247;27841;-73
2021/11/26 01:53:21;;;;;;;15.00;9.77;;;0.70;99.90;;;;;;476483;249;27910;-73
2021/11/26 01:55:23;;;;;;;17.20;10.68;;;0.80;99.90;;;;;;476469;249;27409;-72
2021/11/26 01:57:24;;;;;;;16.27;10.20;;;0.80;99.90;;;;;;476464;247;27449;-72
2021/11/26 01:59:25;;;;;;;15.60;9.50;;;0.80;99.90;;;;;;476432;247;27436;-72
2021/11/26 02:01:26;;;;;;;15.23;10.27;;;0.80;99.90;;;;;;476457;249;27472;-72
2021/11/26 02:03:28;;;;;;;15.00;9.88;;;0.80;99.90;;;;;;476486;247;27523;-72
2021/11/26 02:05:29;;;;;;;16.10;9.73;;;0.80;99.90;;;;;;476459;249;27405;-72
2021/11/26 02:07:30;;;;;;;16.45;10.82;;;0.80;99.90;;;;;;476446;249;27927;-73
2021/11/26 02:09:31;;;;;;;15.45;10.13;;;0.80;99.90;;;;;;476498;247;27986;-73
2021/11/26 02:11:33;;;;;;;16.17;10.10;;;0.80;99.90;;;;;;476481;247;27402;-72
2021/11/26 02:13:34;;;;;;;15.85;10.43;;;0.80;99.90;;;;;;476504;247;27452;-73
2021/11/26 02:15:43;;;;;;;18.73;10.70;;;0.80;99.90;;;;;;476450;247;27469;-72
2021/11/26 02:17:43;;;;;;;14.55;9.82;;;0.70;99.90;;;;;;476352;249;27522;-72
2021/11/26 02:19:44;;;;;;;17.15;9.93;;;0.80;99.90;;;;;;476461;249;27429;-73
2021/11/26 02:21:45;;;;;;;14.07;9.73;;;0.80;99.90;;;;;;476452;249;27508;-72
2021/11/26 02:23:46;;;;;;;16.60;10.32;;;0.80;99.90;;;;;;476487;249;27433;-73
2021/11/26 02:25:48;;;;;;;18.83;10.10;;;0.70;99.90;;;;;;476522;247;27794;-73
2021/11/26 02:27:49;;;;;;;18.10;10.48;;;0.70;99.90;;;;;;476502;247;27955;-72
2021/11/26 02:29:56;;;;;;;22.05;10.02;;;0.70;99.90;;;;;;476470;247;28019;-73
2021/11/26 02:31:57;;;;;;;15.05;9.65;;;0.70;99.90;;;;;;476478;247;27430;-72
2021/11/26 02:33:58;;;;;;;16.45;10.68;;;0.70;99.90;;;;;;476435;249;27445;-72
2021/11/26 02:36:00;;;;;;;18.17;11.10;;;0.70;99.90;;;;;;476451;247;27409;-73
2021/11/26 02:38:01;;;;;;;18.15;10.88;;;0.70;99.90;;;;;;476496;247;27426;-72
2021/11/26 02:40:02;;;;;;;15.02;9.60;;;0.70;99.90;;;;;;476458;247;27484;-72
2021/11/26 02:42:03;;;;;;;21.62;11.40;;;0.70;99.90;;;;;;476460;249;27499;-73
2021/11/26 02:44:05;;;;;;;14.40;9.55;;;0.70;99.90;;;;;;476466;247;27904;-73
2021/11/26 02:46:06;;;;;;;15.35;10.30;;;0.70;99.90;;;;;;476441;249;28742;-72
2021/11/26 02:48:07;;;;;;;15.90;10.07;;;0.70;99.90;;;;;;476493;248;27406;-72
2021/11/26 02:50:09;;;;;;;17.60;10.27;;;0.70;99.90;;;;;;476444;247;27528;-73
2021/11/26 02:52:10;;;;;;;16.20;10.55;;;0.70;99.90;;;;;;476463;247;27409;-72
2021/11/26 02:54:11;;;;;;;17.17;10.20;;;0.70;99.90;;;;;;476456;247;27492;-72
2021/11/26 02:56:12;;;;;;;16.12;9.82;;;0.60;99.90;;;;;;476478;247;27425;-74
2021/11/26 02:58:13;;;;;;;13.82;9.38;;;0.60;99.90;;;;;;476478;249;27409;-72
2021/11/26 03:00:15;;;;;;;14.73;9.48;;;0.60;99.90;;;;;;476452;249;27908;-73
2021/11/26 03:02:16;;;;;;;17.52;11.25;;;0.50;99.90;;;;;;476467;249;28008;-73
2021/11/26 03:04:17;;;;;;;17.08;10.23;;;0.60;99.90;;;;;;476454;247;27923;-75
2021/11/26 03:06:18;;;;;;;16.15;10.63;;;0.60;99.90;;;;;;476496;247;27433;-73
2021/11/26 03:08:20;;;;;;;17.70;10.65;;;0.60;99.90;;;;;;476476;247;27505;-72
2021/11/26 03:10:21;;;;;;;15.98;10.10;;;0.60;99.90;;;;;;476452;247;27508;-72
2021/11/26 03:12:22;;;;;;;18.10;10.82;;;0.60;99.90;;;;;;476468;247;27401;-72
2021/11/26 03:14:24;;;;;;;13.85;9.80;;;0.70;99.90;;;;;;476493;247;27433;-73
2021/11/26 03:16:25;;;;;;;19.48;11.40;;;0.70;99.90;;;;;;476469;249;28000;-72
2021/11/26 03:18:28;;;;;;;14.32;9.65;;;0.70;99.90;;;;;;476477;247;27916;-72
2021/11/26 03:20:27;;;;;;;17.70;11.15;;;0.70;99.90;;;;;;476299;249;28026;-73
2021/11/26 03:22:29;;;;;;;18.37;10.50;;;0.70;99.90;;;;;;476474;247;27460;-72
2021/11/26 03:24:30;;;;;;;15.65;10.57;;;0.70;99.90;;;;;;476482;247;27472;-72
2021/11/26 03:26:31;;;;;;;17.83;10.32;;;0.70;99.90;;;;;;476428;247;27504;-74
2021/11/26 03:28:32;;;;;;;16.73;10.20;;;0.70;99.90;;;;;;476451;247;27471;-72
2021/11/26 03:30:34;;;;;;;18.73;11.15;;;0.70;99.90;;;;;;476432;247;27472;-73
2021/11/26 03:32:35;;;;;;;15.48;10.13;;;0.70;99.90;;;;;;476476;247;27949;-74
2021/11/26 03:34:36;;;;;;;16.12;10.63;;;0.70;99.90;;;;;;476504;247;28014;-72
2021/11/26 03:36:37;;;;;;;17.25;10.68;;;0.70;99.90;;;;;;476480;247;27457;-73
2021/11/26 03:38:39;;;;;;;18.35;11.32;;;0.80;99.90;;;;;;476450;247;27547;-72
2021/11/26 03:40:40;;;;;;;17.65;10.40;;;0.80;99.90;;;;;;476469;247;27413;-73
2021/11/26 03:42:41;;;;;;;17.00;10.45;;;0.80;99.90;;;;;;476491;247;27473;-73
2021/11/26 03:44:43;;;;;;;16.75;10.40;;;0.70;99.90;;;;;;476474;247;27488;-72
2021/11/26 03:46:44;;;;;;;16.17;9.90;;;0.70;99.90;;;;;;476495;247;27496;-73
2021/11/26 03:48:45;;;;;;;18.25;11.00;;;0.70;99.90;;;;;;476461;249;28010;-72
2021/11/26 03:50:46;;;;;;;15.77;9.80;;;0.70;99.90;;;;;;476455;247;27915;-72
2021/11/26 03:52:47;;;;;;;15.57;10.82;;;0.70;99.90;;;;;;476473;249;27912;-73
2021/11/26 03:54:49;;;;;;;15.20;10.45;;;0.70;99.90;;;;;;476461;247;27390;-72
2021/11/26 03:56:50;;;;;;;16.08;10.63;;;0.70;99.90;;;;;;476435;247;27530;-73
2021/11/26 03:58:51;;;;;;;15.27;9.80;;;0.80;99.90;;;;;;476435;247;27416;-72
2021/11/26 04:00:52;;;;;;;17.58;10.60;;;0.70;99.90;;;;;;476465;249;27448;-72
2021/11/26 04:02:54;;;;;;;16.90;10.55;;;0.70;99.90;;;;;;476469;247;27527;-72
2021/11/26 04:04:55;;;;;;;16.05;10.52;;;0.80;99.90;;;;;;476473;247;27944;-73
2021/11/26 04:06:56;;;;;;;18.17;11.32;;;0.80;99.90;;;;;;476478;247;27915;-73
2021/11/26 04:08:57;;;;;;;16.80;10.80;;;0.80;99.90;;;;;;476486;247;27480;-74
2021/11/26 04:10:59;;;;;;;19.20;11.25;;;0.80;99.90;;;;;;476517;247;27409;-73
2021/11/26 04:13:00;;;;;;;19.55;11.10;;;0.80;99.90;;;;;;476473;247;27465;-73
2021/11/26 04:15:01;;;;;;;18.52;11.80;;;0.80;99.90;;;;;;476466;247;27406;-72
2021/11/26 04:17:05;;;;;;;17.55;10.98;;;0.80;99.90;;;;;;476413;247;27521;-73
2021/11/26 04:19:04;;;;;;;16.87;10.90;;;0.90;99.90;;;;;;476331;249;27437;-73
2021/11/26 04:21:05;;;;;;;18.67;10.55;;;0.90;99.90;;;;;;476403;247;27934;-73
2021/11/26 04:23:06;;;;;;;19.95;11.88;;;0.90;99.90;;;;;;476440;247;27950;-73
2021/11/26 04:25:07;;;;;;;20.25;11.82;;;0.90;99.90;;;;;;476432;247;27453;-72
2021/11/26 04:27:09;;;;;;;21.30;12.18;;;0.80;99.90;;;;;;476429;247;27485;-73
2021/11/26 04:29:10;;;;;;;20.95;12.90;;;0.90;99.90;;;;;;476476;247;27421;-73
2021/11/26 04:31:11;;;;;;;19.70;12.13;;;0.90;99.90;;;;;;476445;247;27409;-72
2021/11/26 04:33:13;;;;;;;23.27;13.55;;;0.90;99.90;;;;;;476445;247;27449;-73
2021/11/26 04:35:14;;;;;;;25.40;13.60;;;0.80;99.90;;;;;;476442;247;27457;-73
2021/11/26 04:37:15;;;;;;;22.52;13.77;;;0.80;99.90;;;;;;476502;247;27860;-73
2021/11/26 04:39:16;;;;;;;24.52;13.10;;;0.90;99.90;;;;;;476495;247;28001;-72
2021/11/26 04:41:18;;;;;;;24.67;13.48;;;0.90;99.90;;;;;;476469;247;27397;-72
2021/11/26 04:43:20;;;;;;;22.87;14.10;;;0.90;99.90;;;;;;476436;247;27433;-73
2021/11/26 04:45:20;;;;;;;21.37;13.85;;;0.90;99.90;;;;;;476413;247;27420;-73
2021/11/26 04:47:21;;;;;;;21.70;13.45;;;0.80;99.90;;;;;;476462;249;27412;-73
2021/11/26 04:49:23;;;;;;;21.55;13.48;;;0.80;99.90;;;;;;476489;247;27527;-72
2021/11/26 04:51:24;;;;;;;21.87;13.48;;;0.80;99.90;;;;;;476474;247;27876;-73
2021/11/26 04:53:25;;;;;;;22.17;13.00;;;0.80;99.90;;;;;;476454;247;28014;-72
2021/11/26 04:55:26;;;;;;;22.52;13.50;;;0.80;99.90;;;;;;476496;247;27532;-74
2021/11/26 04:57:28;;;;;;;20.23;13.10;;;0.80;99.90;;;;;;476442;247;27394;-72
2021/11/26 04:59:29;;;;;;;23.67;12.60;;;0.80;99.90;;;;;;476502;247;27451;-73
2021/11/26 05:01:30;;;;;;;18.80;12.23;;;0.80;99.90;;;;;;476464;247;27392;-73
2021/11/26 05:03:31;;;;;;;22.05;13.35;;;0.80;99.90;;;;;;476450;247;27428;-73
2021/11/26 05:05:34;;;;;;;22.98;12.80;;;0.80;99.90;;;;;;476482;247;27563;-73
2021/11/26 05:07:35;;;;;;;22.17;13.55;;;0.80;99.90;;;;;;476477;247;27517;-73
2021/11/26 05:09:36;;;;;;;23.08;12.70;;;0.80;99.90;;;;;;476473;247;27872;-73
2021/11/26 05:11:38;;;;;;;19.25;12.40;;;0.80;99.90;;;;;;476463;247;27867;-72
2021/11/26 05:13:43;;;;;;;21.73;13.30;;;0.90;99.90;;;;;;476490;247;28015;-74
2021/11/26 05:15:43;;;;;;;21.65;13.23;;;0.90;99.90;;;;;;476436;247;27433;-73
2021/11/26 05:17:44;;;;;;;20.52;13.15;;;0.90;99.90;;;;;;476479;247;27951;-73
2021/11/26 05:19:45;;;;;;;19.67;12.70;;;0.90;99.90;;;;;;476438;247;28007;-73
2021/11/26 05:21:46;;;;;;;19.73;12.70;;;0.80;99.90;;;;;;476451;247;27437;-73
2021/11/26 05:23:48;;;;;;;22.95;13.30;;;0.80;99.90;;;;;;476485;247;27437;-73
2021/11/26 05:25:49;;;;;;;23.25;14.10;;;0.80;99.90;;;;;;476449;247;27536;-74
2021/11/26 05:27:50;;;;;;;21.67;13.13;;;0.90;99.90;;;;;;476499;247;27413;-72
2021/11/26 05:29:52;;;;;;;23.58;13.18;;;0.90;99.90;;;;;;476438;247;27433;-73
2021/11/26 05:31:53;;;;;;;24.20;14.60;;;0.90;99.90;;;;;;476464;247;27861;-72
2021/11/26 05:33:54;;;;;;;23.73;13.65;;;0.90;99.90;;;;;;476502;247;27873;-73
2021/11/26 05:35:55;;;;;;;21.80;13.07;;;0.90;99.90;;;;;;476464;247;29109;-73
2021/11/26 05:37:57;;;;;;;26.00;14.80;;;0.90;99.90;;;;;;476493;247;27436;-72
2021/11/26 05:39:58;;;;;;;24.63;13.88;;;0.90;99.90;;;;;;476475;247;27428;-73
2021/11/26 05:41:59;;;;;;;22.87;14.80;;;0.90;99.90;;;;;;476456;247;27417;-72
2021/11/26 05:44:00;;;;;;;22.95;14.68;;;0.90;99.90;;;;;;476489;247;27504;-73
2021/11/26 05:46:02;;;;;;;24.20;14.30;;;0.90;99.90;;;;;;476499;247;27473;-73
2021/11/26 05:48:03;;;;;;;29.60;16.23;;;0.90;99.90;;;;;;476432;247;27880;-72
2021/11/26 05:50:06;;;;;;;27.35;15.43;;;0.90;99.90;;;;;;476448;247;27949;-73
2021/11/26 05:52:05;;;;;;;28.25;16.58;;;0.90;99.90;;;;;;476400;249;27436;-72
2021/11/26 05:54:07;;;;;;;25.52;15.50;;;0.90;99.90;;;;;;476452;247;27513;-73
2021/11/26 05:56:08;;;;;;;26.55;16.30;;;0.90;99.90;;;;;;476451;247;27546;-72
2021/11/26 05:58:09;;;;;;;25.50;15.50;;;0.90;99.90;;;;;;476473;247;27421;-72
2021/11/26 06:00:10;;;;;;;26.02;16.10;;;0.80;99.90;;;;;;476375;247;27518;-73
2021/11/26 06:02:12;;;;;;;26.77;16.58;;;0.80;99.90;;;;;;476446;247;27548;-73
2021/11/26 06:04:13;;;;;;;29.37;15.73;;;0.80;99.90;;;;;;476406;247;27865;-73
2021/11/26 06:06:14;;;;;;;27.40;16.85;;;0.80;99.90;;;;;;476384;247;29112;-73
2021/11/26 06:08:15;;;;;;;25.23;15.85;;;0.80;99.90;;;;;;476427;247;27390;-72
2021/11/26 06:10:17;;;;;;;24.90;14.87;;;0.80;99.90;;;;;;476412;247;27447;-72
2021/11/26 06:12:18;;;;;;;28.62;16.65;;;0.80;99.90;;;;;;476472;247;27460;-74
2021/11/26 06:14:19;;;;;;;30.90;18.60;;;0.80;99.90;;;;;;476466;247;27433;-72
2021/11/26 06:16:20;;;;;;;32.13;16.98;;;0.80;99.90;;;;;;476418;247;27479;-73
2021/11/26 06:18:22;;;;;;;32.13;17.58;;;0.90;99.90;;;;;;476451;247;27853;-72
2021/11/26 06:20:23;;;;;;;26.98;16.50;;;0.80;99.90;;;;;;476484;247;27856;-73
2021/11/26 06:22:24;;;;;;;26.80;15.90;;;0.80;99.90;;;;;;476504;247;27460;-74
2021/11/26 06:24:25;;;;;;;30.30;17.12;;;0.80;99.90;;;;;;476485;247;27400;-73
2021/11/26 06:26:27;;;;;;;30.65;17.48;;;0.80;99.90;;;;;;476484;247;27452;-72
2021/11/26 06:28:28;;;;;;;27.00;16.15;;;0.80;99.90;;;;;;476494;247;27492;-72
2021/11/26 06:30:29;;;;;;;26.75;15.70;;;0.80;99.90;;;;;;476489;247;27511;-72
2021/11/26 06:32:30;;;;;;;31.00;17.33;;;0.80;99.90;;;;;;476492;247;27429;-73
2021/11/26 06:34:32;;;;;;;29.00;17.62;;;0.80;99.90;;;;;;476490;247;27857;-72
2021/11/26 06:36:33;;;;;;;26.67;16.85;;;0.80;99.90;;;;;;476442;247;28248;-73
2021/11/26 06:38:34;;;;;;;30.55;16.62;;;0.70;99.90;;;;;;476472;247;27441;-72
2021/11/26 06:40:36;;;;;;;27.55;16.27;;;0.70;99.90;;;;;;476477;247;27446;-72
2021/11/26 06:42:37;;;;;;;25.75;16.12;;;0.80;99.90;;;;;;476472;247;27512;-74
2021/11/26 06:44:38;;;;;;;28.23;16.83;;;0.80;99.90;;;;;;476481;247;27400;-72
2021/11/26 06:46:39;;;;;;;27.55;16.30;;;0.80;99.90;;;;;;476429;247;27515;-72
2021/11/26 06:48:41;;;;;;;29.35;16.83;;;0.80;99.90;;;;;;476495;247;27453;-73
2021/11/26 06:50:42;;;;;;;24.15;15.57;;;0.80;99.90;;;;;;476467;247;27949;-72
2021/11/26 06:52:43;;;;;;;27.62;15.27;;;0.80;99.90;;;;;;476469;247;27900;-73
2021/11/26 06:54:44;;;;;;;28.92;16.90;;;0.80;99.90;;;;;;476454;247;27393;-72
2021/11/26 06:56:46;;;;;;;29.17;17.55;;;0.80;99.90;;;;;;476438;247;27424;-72
2021/11/26 06:58:47;;;;;;;27.10;16.25;;;0.80;99.90;;;;;;476467;247;27515;-73
2021/11/26 07:00:48;;;;;;;28.52;15.98;;;0.80;99.90;;;;;;476431;247;27405;-73
2021/11/26 07:02:49;;;;;;;25.98;15.98;;;0.80;99.90;;;;;;476459;247;27532;-73
2021/11/26 07:04:51;;;;;;;28.70;16.55;;;0.80;99.90;;;;;;476441;247;28675;-73
2021/11/26 07:06:52;;;;;;;25.25;15.75;;;0.80;99.90;;;;;;476456;247;27924;-73
2021/11/26 07:08:53;;;;;;;29.95;17.12;;;0.80;99.90;;;;;;476458;247;27433;-73
2021/11/26 07:10:54;;;;;;;25.70;16.48;;;0.80;99.90;;;;;;476446;247;27397;-72
2021/11/26 07:12:56;;;;;;;30.20;17.50;;;0.90;99.90;;;;;;476445;247;27433;-73
2021/11/26 07:14:57;;;;;;;29.48;16.95;;;0.90;99.90;;;;;;476463;247;27558;-73
2021/11/26 07:16:58;;;;;;;31.45;16.92;;;0.90;99.90;;;;;;476446;249;27476;-72
2021/11/26 07:18:59;;;;;;;27.73;15.30;;;0.90;99.90;;;;;;476370;247;27475;-74
2021/11/26 07:21:01;;;;;;;32.47;17.25;;;0.90;99.90;;;;;;476411;248;27848;-72
2021/11/26 07:23:02;;;;;;;29.45;17.05;;;0.90;99.90;;;;;;476401;247;27892;-73
2021/11/26 07:25:03;;;;;;;28.08;17.45;;;0.90;99.90;;;;;;476478;247;27473;-74
2021/11/26 07:27:04;;;;;;;32.67;17.52;;;0.90;99.90;;;;;;476465;247;27509;-73
2021/11/26 07:29:06;;;;;;;29.50;17.20;;;0.90;99.90;;;;;;476460;247;27503;-74
2021/11/26 07:31:08;;;;;;;31.55;17.23;;;0.90;99.90;;;;;;476441;247;27456;-72
2021/11/26 07:33:08;;;;;;;28.70;17.75;;;1.00;99.90;;;;;;476434;249;27497;-72
2021/11/26 07:35:09;;;;;;;30.05;16.60;;;1.00;99.90;;;;;;476478;247;27432;-72
2021/11/26 07:37:12;;;;;;;32.38;17.00;;;1.10;99.90;;;;;;476461;247;27861;-72
2021/11/26 07:39:12;;;;;;;28.23;15.77;;;1.00;99.90;;;;;;476425;247;27990;-73
2021/11/26 07:41:15;;;;;;;28.00;16.45;;;1.00;99.90;;;;;;476439;247;27428;-72
2021/11/26 07:43:14;;;;;;;26.30;15.25;;;1.10;99.90;;;;;;476429;247;27405;-73
2021/11/26 07:45:16;;;;;;;28.42;15.80;;;1.10;99.90;;;;;;476474;247;27509;-73
2021/11/26 07:47:18;;;;;;;28.33;16.60;;;1.10;99.90;;;;;;476433;247;27439;-72
2021/11/26 07:49:18;;;;;;;27.37;16.35;;;1.10;99.90;;;;;;476410;247;27456;-73
2021/11/26 07:51:19;;;;;;;27.60;16.25;;;1.20;99.90;;;;;;476351;247;28336;-73
2021/11/26 07:53:21;;;;;;;25.95;15.60;;;1.20;99.90;;;;;;476253;247;27843;-73
2021/11/26 07:55:23;;;;;;;29.63;16.70;;;1.20;99.90;;;;;;476299;247;27444;-73
2021/11/26 07:57:23;;;;;;;30.85;18.48;;;1.20;99.90;;;;;;476257;247;27417;-72
2021/11/26 07:59:26;;;;;;;24.98;16.10;;;1.20;99.90;;;;;;476349;247;27451;-72
2021/11/26 08:01:26;;;;;;;28.25;16.37;;;1.30;99.90;;;;;;476410;249;27429;-74
2021/11/26 08:03:27;;;;;;;26.20;16.02;;;1.20;99.90;;;;;;476472;247;27535;-73
2021/11/26 08:05:28;;;;;;;29.92;16.50;;;1.30;99.90;;;;;;476454;247;27432;-73
2021/11/26 08:07:30;;;;;;;25.95;15.48;;;1.30;99.90;;;;;;476447;247;28625;-72
2021/11/26 08:09:31;;;;;;;26.35;15.40;;;1.30;99.90;;;;;;476482;247;28027;-73
2021/11/26 08:11:32;;;;;;;26.80;16.27;;;1.40;99.90;;;;;;476479;247;27449;-73
2021/11/26 08:13:33;;;;;;;26.77;15.68;;;1.40;99.90;;;;;;476506;247;27396;-72
2021/11/26 08:15:35;;;;;;;29.83;16.33;;;1.40;99.90;;;;;;476495;247;27547;-73
2021/11/26 08:17:36;;;;;;;27.50;16.85;;;1.50;99.90;;;;;;476483;247;27432;-72
2021/11/26 08:19:37;;;;;;;27.73;15.70;;;1.50;99.90;;;;;;476515;247;27463;-73
2021/11/26 08:21:38;;;;;;;32.08;18.58;;;1.50;99.90;;;;;;476470;247;27918;-73
2021/11/26 08:23:40;;;;;;;30.25;17.37;;;1.60;99.90;;;;;;476496;247;28002;-73
2021/11/26 08:25:41;;;;;;;29.73;17.45;;;1.60;99.90;;;;;;476476;247;27519;-73
2021/11/26 08:27:42;;;;;;;30.50;17.10;;;1.60;99.90;;;;;;476449;247;27437;-73
2021/11/26 08:29:43;;;;;;;26.00;16.05;;;1.60;99.90;;;;;;476477;247;27516;-72
2021/11/26 08:31:45;;;;;;;30.48;16.60;;;1.60;99.90;;;;;;476489;247;27548;-73
2021/11/26 08:33:46;;;;;;;32.25;16.75;;;1.60;99.90;;;;;;476472;247;27413;-73
2021/11/26 08:35:48;;;;;;;29.30;17.17;;;1.60;99.90;;;;;;476483;247;27463;-74
2021/11/26 08:37:49;;;;;;;29.75;16.40;;;1.60;99.90;;;;;;476386;249;27920;-74
2021/11/26 08:39:50;;;;;;;28.35;16.55;;;1.60;99.90;;;;;;476475;247;27872;-72
2021/11/26 08:41:51;;;;;;;28.80;15.60;;;1.60;99.90;;;;;;476483;247;27540;-73
2021/11/26 08:43:52;;;;;;;30.05;17.85;;;1.60;99.90;;;;;;476479;247;27414;-73
2021/11/26 08:45:53;;;;;;;31.00;17.70;;;1.50;99.90;;;;;;476511;247;27397;-73
2021/11/26 08:47:55;;;;;;;29.90;17.40;;;1.50;99.90;;;;;;476504;247;27449;-73
2021/11/26 08:49:56;;;;;;;32.40;17.60;;;1.60;99.90;;;;;;476457;247;27416;-73
2021/11/26 08:51:57;;;;;;;32.63;18.02;;;1.60;99.90;;;;;;476456;247;27937;-73
2021/11/26 08:53:58;;;;;;;32.78;17.98;;;1.60;99.90;;;;;;476527;247;28166;-73
2021/11/26 08:56:00;;;;;;;33.22;17.40;;;1.60;99.90;;;;;;476494;247;27412;-73
2021/11/26 08:58:02;;;;;;;34.67;19.45;;;1.60;99.90;;;;;;476481;247;27508;-74
2021/11/26 09:00:02;;;;;;;34.45;18.77;;;1.70;99.90;;;;;;476490;247;27478;-73
2021/11/26 09:02:03;;;;;;;37.22;19.65;;;1.60;99.90;;;;;;476439;247;27424;-74
2021/11/26 09:04:05;;;;;;;36.65;19.33;;;1.60;99.90;;;;;;476482;247;27485;-74
2021/11/26 09:06:06;;;;;;;44.08;21.37;;;1.60;99.90;;;;;;476465;247;27496;-72
2021/11/26 09:08:13;;;;;;;39.75;21.45;;;1.70;99.90;;;;;;476474;247;28012;-73
2021/11/26 09:10:09;;;;;;;39.45;21.40;;;1.70;99.90;;;;;;476089;248;27953;-72
2021/11/26 09:12:10;;;;;;;43.05;21.25;;;1.70;99.90;;;;;;476454;247;27400;-73
2021/11/26 09:14:11;;;;;;;42.95;23.80;;;1.70;99.90;;;;;;476474;247;27444;-73
2021/11/26 09:16:12;;;;;;;38.88;21.83;;;1.70;99.90;;;;;;476458;247;27388;-72
2021/11/26 09:18:14;;;;;;;43.67;23.12;;;1.70;99.90;;;;;;476447;247;27449;-73
2021/11/26 09:20:15;;;;;;;42.55;22.60;;;1.70;99.90;;;;;;476434;248;27581;-73
2021/11/26 09:22:16;;;;;;;40.58;21.48;;;1.80;99.90;;;;;;476475;247;27960;-73
2021/11/26 09:24:17;;;;;;;46.78;22.42;;;1.80;99.90;;;;;;476463;247;28019;-73
2021/11/26 09:26:19;;;;;;;44.85;23.67;;;1.80;99.90;;;;;;476474;247;27985;-73
2021/11/26 09:28:20;;;;;;;45.42;22.58;;;1.80;99.90;;;;;;476473;247;27420;-73
2021/11/26 09:30:21;;;;;;;47.92;22.62;;;1.90;99.90;;;;;;476436;247;27445;-72
2021/11/26 09:32:22;;;;;;;39.03;19.60;;;1.90;99.90;;;;;;476337;247;27473;-73
2021/11/26 09:34:24;;;;;;;39.05;20.05;;;1.90;99.90;;;;;;476466;247;27523;-73
2021/11/26 09:36:27;;;;;;;45.63;22.85;;;1.90;99.90;;;;;;476345;247;27493;-72
2021/11/26 09:38:26;;;;;;;40.75;21.12;;;1.90;99.90;;;;;;476325;249;27970;-73
2021/11/26 09:40:27;;;;;;;37.80;20.50;;;1.90;99.90;;;;;;476491;247;28029;-73
2021/11/26 09:42:30;;;;;;;45.30;22.33;;;2.00;99.90;;;;;;476477;247;27402;-73
2021/11/26 09:44:33;;;;;;;46.35;22.35;;;2.00;99.90;;;;;;476399;249;27519;-73
2021/11/26 09:46:34;;;;;;;45.08;22.23;;;2.00;99.90;;;;;;476282;249;27386;-73
2021/11/26 09:48:32;;;;;;;55.35;25.10;;;2.00;99.90;;;;;;476365;249;27524;-73
2021/11/26 09:50:34;;;;;;;47.80;22.92;;;2.00;99.90;;;;;;476488;247;27483;-73
2021/11/26 09:52:35;;;;;;;44.58;21.52;;;2.00;99.90;;;;;;476454;247;27418;-72
2021/11/26 09:54:36;;;;;;;41.70;22.60;;;2.00;99.90;;;;;;476432;247;27985;-73
2021/11/26 09:56:37;;;;;;;42.62;20.45;;;2.00;99.90;;;;;;476443;247;27994;-72
2021/11/26 09:58:39;;;;;;;45.20;21.33;;;2.10;99.90;;;;;;476462;247;27540;-73
2021/11/26 10:00:40;;;;;;;57.00;23.45;;;2.10;99.90;;;;;;476487;247;27456;-73
2021/11/26 10:02:41;;;;;;;47.60;22.48;;;2.10;99.90;;;;;;476475;247;27418;-73
2021/11/26 10:04:42;;;;;;;48.08;22.85;;;2.10;99.90;;;;;;476472;247;27471;-73
2021/11/26 10:06:45;;;;;;;48.42;22.23;;;2.10;99.90;;;;;;476490;247;27550;-72
2021/11/26 10:08:45;;;;;;;46.85;22.95;;;2.10;99.90;;;;;;476461;247;27517;-73
2021/11/26 10:10:46;;;;;;;45.63;22.05;;;2.10;99.90;;;;;;476467;247;28002;-73
2021/11/26 10:12:47;;;;;;;52.67;24.73;;;2.10;99.90;;;;;;476455;247;27907;-73
2021/11/26 10:14:49;;;;;;;51.88;24.23;;;2.10;99.90;;;;;;476449;247;27498;-73
2021/11/26 10:16:50;;;;;;;51.45;23.27;;;2.20;99.90;;;;;;476473;247;27393;-74
2021/11/26 10:18:51;;;;;;;45.97;22.27;;;2.20;99.90;;;;;;476424;247;27471;-73
2021/11/26 10:20:52;;;;;;;46.00;22.05;;;2.20;99.90;;;;;;476436;247;27440;-73
2021/11/26 10:22:54;;;;;;;44.75;20.55;;;2.20;99.90;;;;;;476452;247;27394;-73